Time;durP1;ratioP1;P1;durP2;ratioP2;P2;SDS_P1;SDS_P2;PMS_P1;PMS_P2;Temp;Humidity;BMP_temperature;BMP_pressure;BME280_temperature;BME280_humidity;BME280_pressure;Samples;Min_cycle;Max_cycle;Signal;HPM_P1;HPM_P2
2022/10/07 00:02:31;;;;;;;8.93;8.03;;;14.70;99.90;;;;;;6240143;28;20477;-63
2022/10/07 00:05:34;;;;;;;8.43;7.57;;;14.70;99.90;;;;;;6240538;28;20483;-62
2022/10/07 00:08:39;;;;;;;8.63;7.23;;;14.70;99.90;;;;;;6243440;28;20472;-63
2022/10/07 00:11:44;;;;;;;10.20;7.93;;;14.70;99.90;;;;;;6252843;28;20552;-59
2022/10/07 00:14:47;;;;;;;10.10;7.20;;;14.60;99.90;;;;;;6253095;28;20621;-62
2022/10/07 00:17:50;;;;;;;8.80;7.90;;;14.60;99.90;;;;;;6252854;28;20546;-58
2022/10/07 00:20:53;;;;;;;10.77;7.87;;;14.60;99.90;;;;;;6253142;28;20475;-59
2022/10/07 00:23:57;;;;;;;9.30;7.57;;;14.50;99.90;;;;;;6254456;28;20569;-63
2022/10/07 00:27:01;;;;;;;8.90;8.00;;;14.50;99.90;;;;;;6247521;28;20551;-63
2022/10/07 00:30:05;;;;;;;8.10;7.40;;;14.50;99.90;;;;;;6228045;28;21076;-59
2022/10/07 00:33:08;;;;;;;10.10;8.30;;;14.50;99.90;;;;;;6237773;28;20487;-62
2022/10/07 00:36:14;;;;;;;9.70;7.50;;;14.40;99.90;;;;;;6233155;28;20536;-62
2022/10/07 00:39:18;;;;;;;8.50;7.70;;;14.40;99.90;;;;;;6251406;28;20609;-57
2022/10/07 00:42:22;;;;;;;11.83;8.23;;;14.40;99.90;;;;;;6251516;28;20605;-56
2022/10/07 00:45:25;;;;;;;9.70;8.73;;;14.40;99.90;;;;;;6252088;28;20479;-58
2022/10/07 00:48:31;;;;;;;8.50;7.80;;;14.40;99.90;;;;;;6252333;28;20835;-62
2022/10/07 00:51:35;;;;;;;8.80;8.00;;;14.40;99.90;;;;;;6252161;28;20540;-62
2022/10/07 00:54:39;;;;;;;9.23;8.33;;;14.30;99.90;;;;;;6251714;28;20732;-59
2022/10/07 00:57:46;;;;;;;9.80;8.87;;;14.40;99.90;;;;;;6246564;28;20771;-62
2022/10/07 01:00:50;;;;;;;7.87;7.17;;;14.30;99.90;;;;;;6237853;28;20427;-64
2022/10/07 01:03:54;;;;;;;9.87;7.80;;;14.20;99.90;;;;;;6237879;28;20892;-58
2022/10/07 01:06:57;;;;;;;7.37;6.77;;;14.20;99.90;;;;;;6242309;28;20495;-58
2022/10/07 01:10:01;;;;;;;7.90;7.20;;;14.20;99.90;;;;;;6235775;28;20539;-57
2022/10/07 01:13:14;;;;;;;8.30;7.50;;;14.20;99.90;;;;;;6237044;28;20479;-63
2022/10/07 01:16:22;;;;;;;8.17;7.00;;;14.20;99.90;;;;;;6251335;28;20471;-57
2022/10/07 01:19:44;;;;;;;9.77;7.50;;;14.10;99.90;;;;;;6251443;28;20565;-61
2022/10/07 01:23:00;;;;;;;8.80;7.93;;;14.10;99.90;;;;;;6251334;28;20482;-57
2022/10/07 01:26:26;;;;;;;8.50;7.70;;;14.00;99.90;;;;;;6251372;28;20988;-61
2022/10/07 01:29:35;;;;;;;6.83;6.23;;;14.00;99.90;;;;;;6238484;28;20484;-62
2022/10/07 01:32:43;;;;;;;8.77;6.80;;;14.00;99.90;;;;;;6239594;28;20479;-63
2022/10/07 01:35:50;;;;;;;7.60;6.90;;;13.90;99.90;;;;;;6238299;28;20475;-62
2022/10/07 01:39:01;;;;;;;11.70;6.53;;;13.90;99.90;;;;;;6242822;28;20463;-62
2022/10/07 01:42:06;;;;;;;11.90;6.97;;;13.90;99.90;;;;;;6238696;28;20484;-63
2022/10/07 01:45:14;;;;;;;10.40;6.90;;;13.80;99.90;;;;;;6227222;28;20982;-61
2022/10/07 01:48:18;;;;;;;7.80;6.70;;;13.80;99.90;;;;;;6245145;28;20537;-61
2022/10/07 01:51:25;;;;;;;8.17;7.37;;;13.80;99.90;;;;;;6250844;28;20490;-58
2022/10/07 01:54:41;;;;;;;7.40;6.70;;;13.70;99.90;;;;;;6250830;28;20933;-59
2022/10/07 01:57:54;;;;;;;8.10;6.60;;;13.70;99.90;;;;;;6251346;28;20912;-57
2022/10/07 02:01:04;;;;;;;9.13;6.70;;;13.70;99.90;;;;;;6251446;28;20424;-59
2022/10/07 02:04:21;;;;;;;6.87;6.20;;;13.70;99.90;;;;;;6251943;28;20563;-59
2022/10/07 02:07:36;;;;;;;8.17;7.17;;;13.70;99.90;;;;;;6253682;28;20476;-59
2022/10/07 02:10:54;;;;;;;6.93;6.33;;;13.70;99.90;;;;;;6258508;28;20476;-61
2022/10/07 02:14:08;;;;;;;6.50;5.90;;;13.70;99.90;;;;;;6251437;28;20816;-61
2022/10/07 02:17:15;;;;;;;7.83;7.23;;;13.70;99.90;;;;;;6250435;28;20807;-56
2022/10/07 02:20:21;;;;;;;7.77;7.00;;;13.70;99.90;;;;;;6250252;28;20479;-57
2022/10/07 02:23:26;;;;;;;7.57;6.43;;;13.70;99.90;;;;;;6250411;28;20471;-63
2022/10/07 02:26:32;;;;;;;8.07;6.87;;;13.70;99.90;;;;;;6249755;28;20513;-57
2022/10/07 02:29:40;;;;;;;9.73;6.60;;;13.70;99.90;;;;;;6249679;28;20486;-57
2022/10/07 02:32:48;;;;;;;6.73;6.10;;;13.60;99.90;;;;;;6250119;28;20479;-63
2022/10/07 02:35:54;;;;;;;6.37;5.77;;;13.60;99.90;;;;;;6249591;28;20475;-63
2022/10/07 02:38:59;;;;;;;7.67;6.80;;;13.60;99.90;;;;;;6249812;28;20826;-63
2022/10/07 02:42:09;;;;;;;6.70;6.00;;;13.60;99.90;;;;;;6250031;28;20582;-57
2022/10/07 02:45:18;;;;;;;10.47;6.50;;;13.60;99.90;;;;;;6249893;28;20494;-58
2022/10/07 02:48:33;;;;;;;7.80;6.20;;;13.60;99.90;;;;;;6250068;28;20490;-61
2022/10/07 02:51:39;;;;;;;6.20;5.60;;;13.60;99.90;;;;;;6249699;28;20515;-61
2022/10/07 02:54:47;;;;;;;6.53;5.93;;;13.60;99.90;;;;;;6249620;28;20854;-61
2022/10/07 02:57:54;;;;;;;6.43;5.83;;;13.60;99.90;;;;;;6245123;28;20428;-62
2022/10/07 03:01:01;;;;;;;6.10;5.50;;;13.60;99.90;;;;;;6249795;28;20496;-62
2022/10/07 03:04:04;;;;;;;7.40;6.00;;;13.60;99.90;;;;;;6249388;28;20545;-62
2022/10/07 03:07:08;;;;;;;6.17;5.50;;;13.60;99.90;;;;;;6248744;28;20915;-63
2022/10/07 03:10:11;;;;;;;5.80;5.37;;;13.50;99.90;;;;;;6249612;28;20475;-58
2022/10/07 03:13:14;;;;;;;5.47;4.97;;;13.50;99.90;;;;;;6249550;28;20594;-62
2022/10/07 03:16:19;;;;;;;6.23;5.70;;;13.50;99.90;;;;;;6249539;28;20475;-59
2022/10/07 03:19:22;;;;;;;5.60;5.10;;;13.50;99.90;;;;;;6249958;28;20470;-62
2022/10/07 03:22:26;;;;;;;6.87;5.90;;;13.40;99.90;;;;;;6249912;28;20471;-62
2022/10/07 03:25:29;;;;;;;6.83;6.30;;;13.40;99.90;;;;;;6249454;28;20478;-62
2022/10/07 03:28:36;;;;;;;7.37;6.63;;;13.40;99.90;;;;;;6250001;28;20471;-62
2022/10/07 03:31:41;;;;;;;11.07;5.70;;;13.30;99.90;;;;;;6249671;28;20494;-57
2022/10/07 03:34:44;;;;;;;7.30;6.60;;;13.20;99.90;;;;;;6249266;28;20490;-58
2022/10/07 03:37:47;;;;;;;13.23;6.33;;;13.20;99.90;;;;;;6249271;28;20540;-61
2022/10/07 03:40:50;;;;;;;6.43;5.20;;;13.20;99.90;;;;;;6249005;28;20983;-63
2022/10/07 03:43:56;;;;;;;6.70;6.13;;;13.20;99.90;;;;;;6248459;28;20976;-62
2022/10/07 03:47:02;;;;;;;6.37;5.77;;;13.20;99.90;;;;;;6248938;28;20483;-64
2022/10/07 03:50:11;;;;;;;6.57;6.00;;;13.30;99.90;;;;;;6249297;28;20475;-58
2022/10/07 03:53:14;;;;;;;8.47;6.20;;;13.20;99.90;;;;;;6248862;28;21022;-64
2022/10/07 03:56:18;;;;;;;6.20;5.60;;;13.20;99.90;;;;;;6249361;28;20980;-64
2022/10/07 03:59:21;;;;;;;8.33;5.97;;;13.30;99.90;;;;;;6249017;28;20475;-63
2022/10/07 04:02:25;;;;;;;6.07;5.47;;;13.20;99.90;;;;;;6249531;28;20470;-58
2022/10/07 04:05:28;;;;;;;7.17;6.40;;;13.20;99.90;;;;;;6244734;28;20576;-57
2022/10/07 04:08:33;;;;;;;6.93;6.23;;;13.20;99.90;;;;;;6249070;28;20532;-59
2022/10/07 04:11:39;;;;;;;7.13;6.43;;;13.20;99.90;;;;;;6249119;28;20521;-57
2022/10/07 04:14:42;;;;;;;6.57;5.77;;;13.10;99.90;;;;;;6248877;28;20991;-57
2022/10/07 04:17:48;;;;;;;7.50;6.83;;;13.10;99.90;;;;;;6252325;28;20532;-62
2022/10/07 04:20:51;;;;;;;8.33;7.40;;;13.10;99.90;;;;;;6253469;28;20509;-57
2022/10/07 04:23:55;;;;;;;14.53;11.43;;;13.10;99.90;;;;;;6252983;28;20964;-61
2022/10/07 04:26:58;;;;;;;9.93;9.00;;;13.10;99.90;;;;;;6253373;28;20882;-62
2022/10/07 04:30:02;;;;;;;8.27;7.07;;;13.10;99.90;;;;;;6253400;28;20820;-63
2022/10/07 04:33:07;;;;;;;9.00;8.20;;;13.10;99.90;;;;;;6253127;28;20475;-63
2022/10/07 04:36:11;;;;;;;8.40;7.60;;;13.00;99.90;;;;;;6253035;28;20479;-62
2022/10/07 04:39:14;;;;;;;9.77;8.07;;;13.00;99.90;;;;;;6253230;28;20474;-57
2022/10/07 04:45:36;;;;;;;7.80;6.00;;;12.90;99.90;;;;;;6251898;28;20801;-58
2022/10/07 04:48:44;;;;;;;7.77;6.83;;;13.00;99.90;;;;;;6252218;28;20460;-57
2022/10/07 04:51:47;;;;;;;9.57;7.47;;;12.90;99.90;;;;;;6253074;28;20805;-61
2022/10/07 04:54:50;;;;;;;10.20;6.40;;;12.90;99.90;;;;;;6252880;28;20474;-57
2022/10/07 04:57:53;;;;;;;7.73;7.00;;;12.90;99.90;;;;;;6253337;28;20509;-62
2022/10/07 05:00:58;;;;;;;7.50;6.53;;;13.00;99.90;;;;;;6253440;28;20525;-63
2022/10/07 05:04:02;;;;;;;7.57;6.80;;;13.10;99.90;;;;;;6252616;28;20485;-62
2022/10/07 05:07:07;;;;;;;9.07;7.33;;;13.10;99.90;;;;;;6242579;28;20941;-62
2022/10/07 05:10:11;;;;;;;8.00;6.80;;;13.20;99.90;;;;;;6252254;28;20558;-58
2022/10/07 05:13:16;;;;;;;11.47;8.20;;;13.20;99.90;;;;;;6252864;28;20475;-58
2022/10/07 05:16:19;;;;;;;7.33;6.73;;;13.20;99.90;;;;;;6251846;28;20482;-62
2022/10/07 05:19:24;;;;;;;8.27;6.50;;;13.30;99.90;;;;;;6252217;28;20574;-62
2022/10/07 05:22:27;;;;;;;8.87;7.40;;;13.40;99.90;;;;;;6252314;28;20463;-62
2022/10/07 05:25:30;;;;;;;10.70;8.30;;;13.40;99.90;;;;;;6252148;28;20972;-59
2022/10/07 05:28:34;;;;;;;9.10;8.10;;;13.50;99.90;;;;;;6251474;28;20956;-57
2022/10/07 05:31:38;;;;;;;10.43;9.30;;;13.60;99.90;;;;;;6251819;28;20486;-58
2022/10/07 05:34:43;;;;;;;10.10;9.10;;;13.60;99.90;;;;;;6251433;28;20754;-58
2022/10/07 05:37:46;;;;;;;9.50;8.30;;;13.70;99.90;;;;;;6251819;28;20472;-58
2022/10/07 05:40:58;;;;;;;10.30;7.73;;;13.80;99.90;;;;;;6251872;28;20479;-59
2022/10/07 05:44:01;;;;;;;7.00;6.50;;;14.00;99.90;;;;;;6251343;28;20483;-59
2022/10/07 05:47:05;;;;;;;7.50;6.87;;;14.10;99.90;;;;;;6251739;28;20594;-58
2022/10/07 05:50:10;;;;;;;10.43;6.53;;;14.20;99.90;;;;;;6251375;28;20471;-62
2022/10/07 05:53:15;;;;;;;6.60;6.00;;;14.30;99.90;;;;;;6251680;28;20819;-57
2022/10/07 05:56:20;;;;;;;8.53;6.80;;;14.40;99.90;;;;;;6251241;28;21019;-57
2022/10/07 05:59:23;;;;;;;7.90;7.20;;;14.40;99.90;;;;;;6251614;28;20961;-58
2022/10/07 06:02:27;;;;;;;7.37;6.67;;;14.40;99.90;;;;;;6251711;28;20475;-63
2022/10/07 06:05:32;;;;;;;9.77;8.87;;;14.40;99.90;;;;;;6250914;28;20923;-64
2022/10/07 06:08:36;;;;;;;8.57;7.27;;;14.40;99.90;;;;;;6251070;28;20980;-64
2022/10/07 06:14:59;;;;;;;10.27;7.43;;;14.50;99.90;;;;;;6248950;28;20484;-56
2022/10/07 06:18:03;;;;;;;10.00;7.17;;;14.50;99.90;;;;;;6248702;28;20812;-62
2022/10/07 06:21:08;;;;;;;8.47;7.13;;;14.60;99.90;;;;;;6249411;28;20471;-62
2022/10/07 06:24:12;;;;;;;8.67;7.77;;;14.60;99.90;;;;;;6249315;28;20482;-61
2022/10/07 06:27:15;;;;;;;8.83;7.93;;;14.70;99.90;;;;;;6250199;28;20977;-61
2022/10/07 06:30:18;;;;;;;9.13;8.23;;;14.70;99.90;;;;;;6250383;28;20561;-58
2022/10/07 06:33:21;;;;;;;8.83;7.47;;;14.80;99.90;;;;;;6250226;28;20486;-57
2022/10/07 06:36:25;;;;;;;8.93;8.07;;;14.80;99.90;;;;;;6249325;28;20994;-57
2022/10/07 06:39:28;;;;;;;9.03;8.13;;;14.90;99.90;;;;;;6249769;28;20479;-57
2022/10/07 06:42:32;;;;;;;8.40;7.67;;;15.00;99.90;;;;;;6250350;28;20486;-62
2022/10/07 06:45:35;;;;;;;10.77;8.43;;;15.00;99.90;;;;;;6250203;28;20479;-63
2022/10/07 06:48:41;;;;;;;8.97;7.90;;;15.10;99.90;;;;;;6249655;28;20824;-58
2022/10/07 06:51:46;;;;;;;8.60;7.83;;;15.20;99.90;;;;;;6250660;28;20570;-58
2022/10/07 06:54:49;;;;;;;9.60;7.10;;;15.20;99.90;;;;;;6250064;28;20471;-58
2022/10/07 06:57:52;;;;;;;9.40;8.00;;;15.30;99.90;;;;;;6250277;28;20501;-58
2022/10/07 07:00:56;;;;;;;10.20;8.23;;;15.40;99.90;;;;;;6249582;28;20448;-63
2022/10/07 07:04:00;;;;;;;11.83;8.87;;;15.50;99.90;;;;;;6249993;28;20545;-58
2022/10/07 07:07:04;;;;;;;10.00;7.80;;;15.60;99.90;;;;;;6249658;28;20767;-58
2022/10/07 07:10:08;;;;;;;9.13;8.23;;;15.80;99.90;;;;;;6249860;28;20472;-63
2022/10/07 07:13:12;;;;;;;12.00;8.33;;;15.90;99.90;;;;;;6244819;28;20467;-63
2022/10/07 07:16:16;;;;;;;11.57;8.30;;;16.10;99.90;;;;;;6249144;28;20830;-63
2022/10/07 07:19:19;;;;;;;12.20;8.00;;;16.20;99.90;;;;;;6249287;28;20557;-64
2022/10/07 07:22:23;;;;;;;12.90;8.27;;;16.40;99.90;;;;;;6249390;28;20471;-58
2022/10/07 07:25:27;;;;;;;8.97;7.97;;;16.50;99.90;;;;;;6249570;28;20498;-63
2022/10/07 07:28:32;;;;;;;6.80;6.20;;;16.70;99.90;;;;;;6249102;28;20774;-59
2022/10/07 07:31:36;;;;;;;9.10;7.73;;;17.00;99.90;;;;;;6249491;28;20487;-60
2022/10/07 07:34:39;;;;;;;8.33;7.50;;;18.40;99.90;;;;;;6248582;28;20487;-60
2022/10/07 07:37:45;;;;;;;7.63;5.60;;;21.20;99.90;;;;;;6249148;28;20234;-58
2022/10/07 07:40:49;;;;;;;7.43;6.73;;;24.20;99.60;;;;;;6253251;28;20232;-58
2022/10/07 07:43:54;;;;;;;9.30;6.63;;;26.60;91.60;;;;;;6256630;28;20250;-63
2022/10/07 07:46:58;;;;;;;8.30;6.87;;;26.70;83.30;;;;;;6249113;28;20232;-65
2022/10/07 07:50:02;;;;;;;12.67;7.77;;;25.40;82.00;;;;;;6248857;28;20724;-65
2022/10/07 07:53:07;;;;;;;13.53;7.13;;;24.30;84.60;;;;;;6252239;28;20231;-64
2022/10/07 07:56:11;;;;;;;7.30;6.60;;;23.60;87.80;;;;;;6253553;28;20247;-64
2022/10/07 07:59:14;;;;;;;8.43;7.50;;;24.30;87.60;;;;;;6253388;28;20228;-63
2022/10/07 08:02:18;;;;;;;8.00;7.20;;;25.90;81.10;;;;;;6253763;28;20711;-59
2022/10/07 08:05:21;;;;;;;8.10;7.40;;;25.90;78.30;;;;;;6252527;28;20265;-59
2022/10/07 08:08:27;;;;;;;8.20;7.40;;;25.90;78.60;;;;;;6252546;28;20238;-58
2022/10/07 08:11:31;;;;;;;7.97;7.33;;;27.30;76.20;;;;;;6253649;28;20269;-57
2022/10/07 08:14:35;;;;;;;8.17;7.47;;;29.70;68.70;;;;;;6253164;28;20594;-58
2022/10/07 08:17:39;;;;;;;7.68;6.97;;;31.80;59.70;;;;;;6253482;28;20297;-59
2022/10/07 08:20:42;;;;;;;7.70;7.07;;;33.90;53.30;;;;;;6243460;28;20239;-59
2022/10/07 08:23:47;;;;;;;11.30;7.97;;;35.60;46.40;;;;;;6253301;28;20238;-64
2022/10/07 08:26:52;;;;;;;8.73;7.85;;;37.30;41.00;;;;;;6252965;28;20242;-66
2022/10/07 08:29:55;;;;;;;13.02;11.73;;;38.40;37.80;;;;;;6253110;28;20236;-58
2022/10/07 08:32:58;;;;;;;9.23;8.52;;;38.50;35.30;;;;;;6252821;28;20693;-59
2022/10/07 08:36:05;;;;;;;11.13;10.02;;;39.20;34.30;;;;;;6252822;28;20294;-58
2022/10/07 08:39:10;;;;;;;9.15;8.45;;;40.40;32.70;;;;;;6252454;28;20246;-63
2022/10/07 08:42:22;;;;;;;11.10;9.93;;;41.40;30.10;;;;;;6252933;28;20234;-64
2022/10/07 08:45:30;;;;;;;9.18;8.27;;;42.20;29.20;;;;;;6252829;28;20244;-60
2022/10/07 08:48:37;;;;;;;10.20;9.40;;;42.60;28.10;;;;;;6252587;28;20252;-60
2022/10/07 08:51:44;;;;;;;8.70;7.88;;;42.80;27.90;;;;;;6252503;28;20222;-60
2022/10/07 08:54:49;;;;;;;9.80;8.80;;;43.10;27.30;;;;;;6252713;28;20227;-64
2022/10/07 08:58:20;;;;;;;9.38;8.73;;;43.20;26.80;;;;;;6252336;28;20219;-64
2022/10/07 09:01:34;;;;;;;9.25;8.43;;;43.70;26.70;;;;;;6252714;28;20341;-60
2022/10/07 09:04:53;;;;;;;10.30;9.40;;;44.50;26.10;;;;;;6251466;28;20312;-63
2022/10/07 09:08:00;;;;;;;9.45;8.60;;;44.90;25.40;;;;;;6252226;28;20631;-60
2022/10/07 09:11:15;;;;;;;8.35;7.70;;;45.00;25.30;;;;;;6252408;28;20245;-63
2022/10/07 09:14:25;;;;;;;9.15;8.55;;;45.80;24.90;;;;;;6251881;28;20337;-64
2022/10/07 09:17:35;;;;;;;10.93;9.18;;;46.40;24.00;;;;;;6251997;28;20289;-64
2022/10/07 09:20:43;;;;;;;8.70;7.90;;;46.00;24.20;;;;;;6252313;28;20231;-65
2022/10/07 09:23:48;;;;;;;9.23;8.27;;;45.30;24.40;;;;;;6242143;28;20672;-64
2022/10/07 09:26:55;;;;;;;9.50;7.47;;;46.00;24.10;;;;;;6252112;28;20236;-64
2022/10/07 09:29:58;;;;;;;9.23;8.43;;;47.40;23.30;;;;;;6252012;28;20250;-59
2022/10/07 09:33:03;;;;;;;9.07;8.15;;;48.60;22.50;;;;;;6251703;28;20569;-60
2022/10/07 09:36:08;;;;;;;8.15;7.55;;;49.10;21.90;;;;;;6251288;28;20258;-61
2022/10/07 09:39:22;;;;;;;8.52;7.80;;;48.30;21.80;;;;;;6235672;28;20227;-62
2022/10/07 09:42:34;;;;;;;10.00;7.15;;;47.70;22.00;;;;;;6227277;28;20685;-65
2022/10/07 09:45:38;;;;;;;8.35;7.55;;;46.90;22.70;;;;;;6226901;28;20723;-65
2022/10/07 09:48:52;;;;;;;7.65;7.15;;;46.70;22.80;;;;;;6225978;28;20287;-63
2022/10/07 09:51:59;;;;;;;8.07;7.28;;;45.90;23.60;;;;;;6226686;28;20198;-62
2022/10/07 09:55:31;;;;;;;6.90;6.20;;;47.00;22.70;;;;;;6226235;28;20239;-64
2022/10/07 09:58:35;;;;;;;6.90;6.30;;;48.50;21.30;;;;;;6226637;28;20231;-62
2022/10/07 10:01:40;;;;;;;7.57;6.97;;;49.80;20.70;;;;;;6226528;28;20237;-62
2022/10/07 10:04:49;;;;;;;6.90;6.30;;;49.80;20.20;;;;;;6225859;28;20250;-62
2022/10/07 10:07:59;;;;;;;6.20;5.68;;;46.40;22.40;;;;;;6233382;28;20445;-62
2022/10/07 10:11:03;;;;;;;10.70;9.90;;;46.50;22.50;;;;;;6250659;28;20231;-62
2022/10/07 10:14:28;;;;;;;5.78;5.28;;;47.80;21.80;;;;;;6229213;28;20287;-63
2022/10/07 10:17:38;;;;;;;9.60;5.38;;;49.00;20.90;;;;;;6225807;28;20240;-62
2022/10/07 10:20:43;;;;;;;4.60;4.30;;;49.70;20.50;;;;;;6225889;28;20248;-64
2022/10/07 10:23:48;;;;;;;6.65;5.40;;;50.10;20.20;;;;;;6225480;28;20243;-62
2022/10/07 10:27:00;;;;;;;5.28;4.88;;;50.50;19.70;;;;;;6221250;28;20572;-64
2022/10/07 10:30:07;;;;;;;5.78;4.85;;;50.10;19.50;;;;;;6225611;28;20255;-63
2022/10/07 10:33:19;;;;;;;10.55;4.28;;;50.70;19.10;;;;;;6225594;28;20298;-64
2022/10/07 10:36:26;;;;;;;4.53;4.13;;;50.60;19.00;;;;;;6225143;28;20246;-64
2022/10/07 10:39:40;;;;;;;5.35;3.75;;;49.50;19.70;;;;;;6225429;28;20231;-63
2022/10/07 10:42:50;;;;;;;4.47;3.97;;;50.20;19.20;;;;;;6225343;28;20235;-61
2022/10/07 10:46:27;;;;;;;4.60;3.42;;;51.20;18.90;;;;;;6225534;28;20239;-61
2022/10/07 10:49:37;;;;;;;5.88;4.28;;;52.00;18.20;;;;;;6219044;28;20224;-61
2022/10/07 10:52:51;;;;;;;4.57;4.18;;;51.20;18.30;;;;;;6225001;28;20243;-64
2022/10/07 10:56:16;;;;;;;5.90;4.07;;;50.40;18.60;;;;;;6225277;28;20233;-61
2022/10/07 10:59:41;;;;;;;3.97;3.67;;;49.70;18.80;;;;;;6224950;28;20240;-62
2022/10/07 11:03:07;;;;;;;4.18;3.55;;;48.70;19.30;;;;;;6222429;28;20732;-62
2022/10/07 11:06:15;;;;;;;4.38;3.97;;;47.70;20.30;;;;;;6209045;28;20229;-60
2022/10/07 11:09:32;;;;;;;6.07;4.05;;;47.60;20.60;;;;;;6225530;28;20228;-61
2022/10/07 11:12:39;;;;;;;4.85;3.88;;;49.00;19.90;;;;;;6226376;28;20241;-61
2022/10/07 11:15:47;;;;;;;3.45;3.20;;;50.20;19.20;;;;;;6250189;28;20230;-61
2022/10/07 11:18:56;;;;;;;4.13;3.83;;;50.30;18.90;;;;;;6249871;28;20234;-62
2022/10/07 11:22:00;;;;;;;4.20;3.50;;;48.70;19.40;;;;;;6249599;28;20228;-61
2022/10/07 11:25:15;;;;;;;3.90;3.40;;;49.20;19.30;;;;;;6249384;28;20657;-61
2022/10/07 11:28:23;;;;;;;5.05;3.28;;;47.50;19.40;;;;;;6248933;28;20572;-59
2022/10/07 11:31:32;;;;;;;3.22;2.92;;;47.10;20.50;;;;;;6240025;28;20649;-59
2022/10/07 11:34:45;;;;;;;2.92;2.72;;;48.40;19.90;;;;;;6249305;28;20318;-59
2022/10/07 11:38:00;;;;;;;3.63;3.33;;;45.40;20.60;;;;;;6227354;28;20701;-59
2022/10/07 11:41:08;;;;;;;4.65;3.50;;;44.20;22.50;;;;;;6220953;28;20258;-59
2022/10/07 11:44:20;;;;;;;3.25;2.97;;;43.90;23.00;;;;;;6224872;28;20690;-58
2022/10/07 11:47:27;;;;;;;3.63;3.42;;;42.60;24.00;;;;;;6223670;28;20233;-57
2022/10/07 11:50:37;;;;;;;4.30;3.60;;;43.50;23.30;;;;;;6232161;28;20273;-57
2022/10/07 11:53:41;;;;;;;4.00;3.50;;;43.20;23.40;;;;;;6222374;28;20615;-58
2022/10/07 11:56:48;;;;;;;3.83;3.42;;;44.10;22.80;;;;;;6224478;28;20675;-59
2022/10/07 11:59:58;;;;;;;3.00;2.72;;;44.10;22.40;;;;;;6224249;28;20240;-58
2022/10/07 12:03:12;;;;;;;3.33;3.13;;;44.10;23.10;;;;;;6224588;28;20232;-58
2022/10/07 12:06:17;;;;;;;3.35;3.05;;;44.20;22.40;;;;;;6224579;28;20243;-58
2022/10/07 12:09:54;;;;;;;3.55;3.25;;;44.90;22.30;;;;;;6225150;28;20235;-59
2022/10/07 12:13:22;;;;;;;3.22;2.85;;;45.80;20.90;;;;;;6224499;28;20554;-59
2022/10/07 12:16:52;;;;;;;3.60;2.90;;;45.20;21.90;;;;;;6223780;28;20245;-59
2022/10/07 12:20:33;;;;;;;5.47;3.10;;;46.40;21.10;;;;;;6224206;28;20571;-60
2022/10/07 12:23:45;;;;;;;3.58;3.28;;;47.20;20.50;;;;;;6224532;28;20224;-60
2022/10/07 12:26:50;;;;;;;3.58;3.28;;;47.90;19.80;;;;;;6224432;28;20245;-59
2022/10/07 12:29:59;;;;;;;3.42;3.13;;;47.40;20.20;;;;;;6224190;28;20695;-59
2022/10/07 12:33:14;;;;;;;4.40;2.97;;;47.80;20.10;;;;;;6223876;28;20289;-59
2022/10/07 12:36:28;;;;;;;4.88;3.45;;;47.80;20.20;;;;;;6219539;28;20300;-59
2022/10/07 12:39:38;;;;;;;3.60;3.30;;;47.10;20.10;;;;;;6226426;28;20272;-59
2022/10/07 12:42:47;;;;;;;3.85;3.22;;;47.70;19.80;;;;;;6228676;28;20240;-59
2022/10/07 12:45:51;;;;;;;4.00;3.70;;;49.70;19.10;;;;;;6228199;28;20718;-59
2022/10/07 12:49:01;;;;;;;4.00;3.70;;;50.50;18.20;;;;;;6228530;28;20203;-59
2022/10/07 12:52:10;;;;;;;4.05;3.10;;;50.90;18.30;;;;;;6227815;28;20591;-59
2022/10/07 12:55:18;;;;;;;3.03;2.83;;;51.30;18.00;;;;;;6228644;28;20240;-59
2022/10/07 13:02:33;;;;;;;5.00;3.80;;;50.50;18.10;;;;;;6228012;28;20262;-59
2022/10/07 13:06:16;;;;;;;3.65;3.35;;;49.80;18.60;;;;;;6227557;28;20247;-58
2022/10/07 13:09:52;;;;;;;5.13;3.47;;;50.00;18.40;;;;;;6195102;28;20256;-58
2022/10/07 13:13:03;;;;;;;4.47;3.72;;;48.60;19.40;;;;;;6227517;28;20294;-58
2022/10/07 13:16:13;;;;;;;3.60;3.30;;;49.50;19.00;;;;;;6227464;28;20240;-58
2022/10/07 13:19:25;;;;;;;5.43;3.03;;;49.80;18.60;;;;;;6227253;28;20562;-58
2022/10/07 13:22:30;;;;;;;5.32;2.97;;;48.70;19.10;;;;;;6227389;28;20669;-59
2022/10/07 13:25:33;;;;;;;4.10;3.60;;;47.10;20.20;;;;;;6227014;28;20244;-58
2022/10/07 13:28:46;;;;;;;3.83;3.53;;;44.40;21.80;;;;;;6227680;28;20233;-59
2022/10/07 13:32:04;;;;;;;3.92;3.63;;;42.80;23.10;;;;;;6227331;28;20577;-57
2022/10/07 13:35:29;;;;;;;5.88;3.88;;;39.00;25.70;;;;;;6227140;28;20237;-61
2022/10/07 13:38:32;;;;;;;4.85;4.35;;;35.60;29.20;;;;;;6223454;28;20261;-60
2022/10/07 13:41:37;;;;;;;3.90;3.67;;;34.20;31.10;;;;;;6227544;28;20284;-59
2022/10/07 13:44:43;;;;;;;4.72;4.22;;;32.80;33.50;;;;;;6225880;28;20678;-59
2022/10/07 13:47:47;;;;;;;5.30;4.60;;;31.60;36.20;;;;;;6225322;28;20239;-60
2022/10/07 13:50:51;;;;;;;4.93;4.53;;;30.30;38.50;;;;;;6224932;28;20232;-59
2022/10/07 13:53:57;;;;;;;7.37;4.30;;;29.00;41.30;;;;;;6225157;28;20302;-60
2022/10/07 13:57:01;;;;;;;5.63;4.53;;;28.30;43.10;;;;;;6225649;28;20232;-60
2022/10/07 14:00:07;;;;;;;4.80;4.40;;;27.40;44.90;;;;;;6226571;28;20236;-59
2022/10/07 14:03:14;;;;;;;4.83;4.43;;;26.50;46.80;;;;;;6226364;28;20224;-58
2022/10/07 14:06:47;;;;;;;7.33;4.53;;;26.40;47.50;;;;;;6226025;28;20632;-60
2022/10/07 14:10:03;;;;;;;7.57;5.30;;;26.20;48.30;;;;;;6226067;28;20224;-60
2022/10/07 14:13:08;;;;;;;5.10;4.53;;;25.80;49.00;;;;;;6225685;28;20619;-60
2022/10/07 14:16:21;;;;;;;7.27;4.57;;;25.30;51.00;;;;;;6226233;28;20262;-59
2022/10/07 14:19:25;;;;;;;5.07;4.67;;;25.20;51.80;;;;;;6226514;28;20314;-59
2022/10/07 14:22:31;;;;;;;5.10;4.60;;;25.10;52.20;;;;;;6226009;28;20678;-59
2022/10/07 14:25:51;;;;;;;5.90;5.37;;;25.00;52.10;;;;;;6225969;28;20576;-59
2022/10/07 14:28:55;;;;;;;5.30;4.40;;;24.90;52.70;;;;;;6225932;28;20240;-59
2022/10/07 14:35:39;;;;;;;5.30;4.90;;;24.70;54.20;;;;;;6225542;28;20255;-59
2022/10/07 14:38:46;;;;;;;6.23;5.37;;;24.40;55.20;;;;;;6225714;28;20240;-59
2022/10/07 14:41:49;;;;;;;6.40;5.60;;;24.20;56.70;;;;;;6221150;28;20241;-60
2022/10/07 14:44:54;;;;;;;6.93;5.37;;;23.80;58.20;;;;;;6225293;28;20632;-59
2022/10/07 14:47:59;;;;;;;5.20;4.80;;;23.50;59.50;;;;;;6226199;28;20287;-58
2022/10/07 14:51:02;;;;;;;6.83;5.53;;;23.50;60.40;;;;;;6225435;28;20551;-58
2022/10/07 14:54:07;;;;;;;7.50;6.23;;;23.40;61.80;;;;;;6225135;28;20237;-58
2022/10/07 14:57:10;;;;;;;7.93;5.33;;;23.20;63.10;;;;;;6225351;28;20240;-59
2022/10/07 15:00:16;;;;;;;6.50;5.60;;;23.00;65.00;;;;;;6224778;28;20241;-59
2022/10/07 15:03:20;;;;;;;6.73;5.90;;;23.00;66.30;;;;;;6224774;28;20298;-59
2022/10/07 15:06:24;;;;;;;5.60;4.90;;;22.80;67.70;;;;;;6224797;28;20244;-60
2022/10/07 15:09:27;;;;;;;6.57;6.07;;;22.80;70.00;;;;;;6224902;28;20237;-59
2022/10/07 15:12:32;;;;;;;6.10;5.60;;;22.60;70.60;;;;;;6224721;28;20237;-59
2022/10/07 15:15:38;;;;;;;6.70;6.10;;;22.60;71.70;;;;;;6224691;28;20329;-61
2022/10/07 15:18:43;;;;;;;7.47;6.37;;;22.50;72.70;;;;;;6224582;28;20229;-60
2022/10/07 15:21:55;;;;;;;5.80;5.30;;;22.60;73.60;;;;;;6225469;28;20221;-60
2022/10/07 15:24:58;;;;;;;6.33;5.50;;;22.60;74.60;;;;;;6241174;28;20243;-60
2022/10/07 15:28:01;;;;;;;11.77;5.83;;;22.60;75.20;;;;;;6253315;28;20204;-60
2022/10/07 15:31:06;;;;;;;6.87;5.37;;;22.60;75.60;;;;;;6248805;28;20614;-60
2022/10/07 15:34:12;;;;;;;6.27;5.67;;;22.60;75.90;;;;;;6230562;28;20618;-61
2022/10/07 15:37:16;;;;;;;6.93;6.30;;;22.50;77.90;;;;;;6228409;28;20232;-61
2022/10/07 15:40:19;;;;;;;7.33;6.70;;;22.40;77.90;;;;;;6228572;28;20556;-61
2022/10/07 15:43:23;;;;;;;7.80;7.00;;;22.40;79.00;;;;;;6214713;28;20228;-61
2022/10/07 15:46:26;;;;;;;6.97;6.47;;;22.30;80.30;;;;;;6234230;28;20316;-62
2022/10/07 15:49:31;;;;;;;9.57;8.07;;;22.20;81.70;;;;;;6224536;28;20248;-60
2022/10/07 15:52:34;;;;;;;9.53;7.23;;;22.10;83.10;;;;;;6224284;28;20232;-61
2022/10/07 15:55:37;;;;;;;7.60;7.00;;;21.90;84.40;;;;;;6224284;28;20675;-61
2022/10/07 15:58:40;;;;;;;7.77;6.70;;;21.90;85.50;;;;;;6218489;28;20283;-59
2022/10/07 16:01:44;;;;;;;9.10;7.70;;;21.80;86.50;;;;;;6224217;28;20229;-60
2022/10/07 16:04:48;;;;;;;8.13;7.47;;;21.70;88.30;;;;;;6234556;28;20227;-59
2022/10/07 16:07:51;;;;;;;8.57;7.77;;;21.60;89.80;;;;;;6227520;28;20234;-62
2022/10/07 16:10:55;;;;;;;8.17;7.40;;;21.50;90.30;;;;;;6224366;28;20233;-61
2022/10/07 16:14:00;;;;;;;8.50;7.70;;;21.40;91.10;;;;;;6227440;28;20225;-61
2022/10/07 16:17:03;;;;;;;9.40;8.50;;;21.30;91.40;;;;;;6228983;28;20252;-59
2022/10/07 16:20:09;;;;;;;9.30;8.40;;;21.20;91.90;;;;;;6243295;28;20248;-60
2022/10/07 16:23:13;;;;;;;10.10;8.33;;;21.10;92.50;;;;;;6243969;28;20308;-59
2022/10/07 16:26:18;;;;;;;8.53;7.73;;;21.10;93.00;;;;;;6237882;28;20230;-60
2022/10/07 16:32:43;;;;;;;8.40;7.20;;;21.00;94.00;;;;;;6241535;28;20232;-60